New Market, Indiana
Current Conditions -  °F | °C
As of 9:35 AM on Friday 24 Oct 2014 (Local Time) from K4I7 Reporting Station
Haze Haze  
Wind Chill:   Ceiling: 2600
Heat Index:   Visibility: 5mi
Dew Point:   Wind: 3mph
Humidity: 93%   Direction: 190°S
Pressure: 30.12"   Gusts: NA
Location:  39.95°N, 86.92°W
Report Text: K4I7 241335Z AUTO 19003KT 5SM BR BKN026 OVC038 07/06 A3012 RMK AO2 P0003
Loading
Personal Weather Stations






























Interactive Weather Map
Tropical Storm Tracking
New forecast layout! Learn more

10-Day Weather Forecast

Advertisements
Track Severe Weather on mobile